createdAt,value
2023-01-17T00:01:49.543Z,7.57
2023-01-17T00:04:35.870Z,7.90
2023-01-17T00:07:20.853Z,8.77
2023-01-17T00:09:53.759Z,8.20
2023-01-17T00:12:21.220Z,7.30
2023-01-17T00:14:48.848Z,7.67
2023-01-17T00:17:15.922Z,8.50
2023-01-17T00:20:01.272Z,7.47
2023-01-17T00:22:48.890Z,7.47
2023-01-17T00:25:37.383Z,8.43
2023-01-17T00:28:05.121Z,7.40
2023-01-17T00:30:31.890Z,7.47
2023-01-17T00:32:58.885Z,7.13
2023-01-17T00:35:27.807Z,7.00
2023-01-17T00:38:02.255Z,7.33
2023-01-17T00:40:28.832Z,9.33
2023-01-17T00:43:14.305Z,8.30
2023-01-17T00:46:01.784Z,8.20
2023-01-17T00:48:47.251Z,7.37
2023-01-17T00:51:32.666Z,7.77
2023-01-17T00:54:19.121Z,6.43
2023-01-17T00:57:04.378Z,5.90
2023-01-17T00:59:50.203Z,6.10
2023-01-17T01:02:35.608Z,5.73
2023-01-17T01:05:20.993Z,6.10
2023-01-17T01:08:06.461Z,6.40
2023-01-17T01:10:52.515Z,5.77
2023-01-17T01:13:40.845Z,5.60
2023-01-17T01:16:26.711Z,6.27
2023-01-17T01:19:12.090Z,6.30
2023-01-17T01:21:57.714Z,6.23
2023-01-17T01:24:42.894Z,6.03
2023-01-17T01:27:28.702Z,6.40
2023-01-17T01:30:14.149Z,6.23
2023-01-17T01:32:59.702Z,6.27
2023-01-17T01:35:26.711Z,5.60
2023-01-17T01:38:02.341Z,6.67
2023-01-17T01:40:29.046Z,6.37
2023-01-17T01:42:58.055Z,6.30
2023-01-17T01:45:30.308Z,6.23
2023-01-17T01:48:02.857Z,6.13
2023-01-17T01:50:31.986Z,6.73
2023-01-17T01:53:02.577Z,6.47
2023-01-17T01:55:35.950Z,6.37
2023-01-17T01:58:10.289Z,6.33
2023-01-17T02:00:38.780Z,6.13
2023-01-17T02:03:15.404Z,6.37
2023-01-17T02:05:44.200Z,6.63
2023-01-17T02:08:22.920Z,6.47
2023-01-17T02:10:51.089Z,6.67
2023-01-17T02:13:20.018Z,6.60
2023-01-17T02:16:10.044Z,6.27
2023-01-17T02:18:52.283Z,6.60
2023-01-17T02:21:45.133Z,6.20
2023-01-17T02:24:49.506Z,6.67
2023-01-17T02:27:43.003Z,6.97
2023-01-17T02:30:23.690Z,5.70
2023-01-17T02:33:16.863Z,6.00
2023-01-17T02:35:57.260Z,7.03
2023-01-17T02:41:31.166Z,7.00
2023-01-17T02:43:57.728Z,7.10
2023-01-17T02:46:24.795Z,6.37
2023-01-17T02:48:51.956Z,6.83
2023-01-17T02:51:45.711Z,6.23
2023-01-17T02:54:38.033Z,6.47
2023-01-17T02:57:18.297Z,6.27
2023-01-17T03:00:03.850Z,6.90
2023-01-17T03:02:52.103Z,6.77
2023-01-17T03:05:27.609Z,6.93
2023-01-17T03:07:55.149Z,7.30
2023-01-17T03:10:22.638Z,7.50
2023-01-17T03:12:50.053Z,8.27
2023-01-17T03:15:17.849Z,9.53
2023-01-17T03:17:49.374Z,9.10
2023-01-17T03:20:16.558Z,9.07
2023-01-17T03:22:43.059Z,8.00
2023-01-17T03:25:09.683Z,7.97
2023-01-17T03:27:36.345Z,7.80
2023-01-17T03:30:03.529Z,8.27
2023-01-17T03:32:30.196Z,8.40
2023-01-17T03:34:56.993Z,9.63
2023-01-17T03:37:23.798Z,13.17
2023-01-17T03:39:50.587Z,12.47
2023-01-17T03:42:17.404Z,12.20
2023-01-17T03:44:43.931Z,10.07
2023-01-17T03:47:12.284Z,8.30
2023-01-17T03:49:39.658Z,8.10
2023-01-17T03:52:07.470Z,8.07
2023-01-17T03:54:34.407Z,7.33
2023-01-17T03:57:01.002Z,7.10
2023-01-17T03:59:27.897Z,6.80
2023-01-17T04:01:54.532Z,6.97
2023-01-17T04:04:21.238Z,7.77
2023-01-17T04:06:48.461Z,8.10
2023-01-17T04:09:18.139Z,8.73
2023-01-17T04:11:45.066Z,8.65
2023-01-17T04:14:14.690Z,8.27
2023-01-17T04:16:42.473Z,7.72
2023-01-17T04:19:13.171Z,7.77
2023-01-17T04:21:39.922Z,8.40
2023-01-17T04:24:07.147Z,7.83
2023-01-17T04:26:33.718Z,8.03
2023-01-17T04:29:00.347Z,8.00
2023-01-17T04:31:26.946Z,7.63
2023-01-17T04:33:53.794Z,7.63
2023-01-17T04:36:20.397Z,8.07
2023-01-17T04:38:46.963Z,7.37
2023-01-17T04:41:13.720Z,7.90
2023-01-17T04:43:40.469Z,8.13
2023-01-17T04:46:10.357Z,7.73
2023-01-17T04:48:37.178Z,8.07
2023-01-17T04:51:05.272Z,7.60
2023-01-17T04:53:31.933Z,7.60
2023-01-17T04:55:58.600Z,8.37
2023-01-17T04:58:25.263Z,11.30
2023-01-17T05:00:52.185Z,14.70
2023-01-17T05:03:20.488Z,18.07
2023-01-17T05:05:48.116Z,31.97
2023-01-17T05:08:15.243Z,27.77
2023-01-17T05:10:42.091Z,23.47
2023-01-17T05:13:09.305Z,18.50
2023-01-17T05:15:37.002Z,19.73
2023-01-17T05:18:08.561Z,20.87
2023-01-17T05:20:35.925Z,20.43
2023-01-17T05:23:02.563Z,21.37
2023-01-17T05:25:32.111Z,30.80
2023-01-17T05:28:02.671Z,24.10
2023-01-17T05:32:59.092Z,16.47
2023-01-17T05:35:29.017Z,13.20
2023-01-17T05:37:56.335Z,13.63
2023-01-17T05:40:25.794Z,10.93
2023-01-17T05:42:55.623Z,17.23
2023-01-17T05:45:24.455Z,18.20
2023-01-17T05:47:53.254Z,18.50
2023-01-17T05:50:23.175Z,16.63
2023-01-17T05:52:55.093Z,15.95
2023-01-17T05:55:22.971Z,12.07
2023-01-17T05:57:50.679Z,10.90
2023-01-17T06:00:18.005Z,11.80
2023-01-17T06:02:45.704Z,12.30
2023-01-17T06:05:13.277Z,12.17
2023-01-17T06:07:46.575Z,13.27
2023-01-17T06:10:17.930Z,11.67
2023-01-17T06:12:45.873Z,11.70
2023-01-17T06:15:13.891Z,11.63
2023-01-17T06:17:40.647Z,11.40
2023-01-17T06:20:09.235Z,13.30
2023-01-17T06:22:37.803Z,15.97
2023-01-17T06:25:07.608Z,14.07
2023-01-17T06:27:34.464Z,13.57
2023-01-17T06:30:00.991Z,16.50
2023-01-17T06:32:27.886Z,13.37
2023-01-17T06:34:54.470Z,15.57
2023-01-17T06:37:21.262Z,12.67
2023-01-17T06:39:48.088Z,13.93
2023-01-17T06:42:14.784Z,13.80
2023-01-17T06:44:41.377Z,12.90
2023-01-17T06:47:07.953Z,11.77
2023-01-17T06:49:34.777Z,13.93
2023-01-17T06:52:01.416Z,13.13
2023-01-17T06:54:28.033Z,14.37
2023-01-17T06:56:54.687Z,12.47
2023-01-17T06:59:21.474Z,12.97
2023-01-17T07:01:48.197Z,16.03
2023-01-17T07:04:15.252Z,11.80
2023-01-17T07:06:41.951Z,10.27
2023-01-17T07:09:08.512Z,10.40
2023-01-17T07:11:35.183Z,10.67
2023-01-17T07:14:01.805Z,13.13
2023-01-17T07:16:28.491Z,13.53
2023-01-17T07:18:57.117Z,9.90
2023-01-17T07:21:23.887Z,10.77
2023-01-17T07:23:50.645Z,10.73
2023-01-17T07:26:18.664Z,11.33
2023-01-17T07:28:45.372Z,10.90
2023-01-17T07:31:12.062Z,10.53
2023-01-17T07:33:38.630Z,11.23
2023-01-17T07:36:07.665Z,10.70
2023-01-17T07:38:34.747Z,10.03
2023-01-17T07:41:01.474Z,10.87
2023-01-17T07:43:28.185Z,10.20
2023-01-17T07:45:54.966Z,9.47
2023-01-17T07:48:24.311Z,10.40
2023-01-17T07:50:57.349Z,12.93
2023-01-17T07:53:30.132Z,9.97
2023-01-17T07:56:04.807Z,10.33
2023-01-17T07:58:32.842Z,13.60
2023-01-17T08:01:08.221Z,12.63
2023-01-17T08:03:40.306Z,12.20
2023-01-17T08:06:16.538Z,10.40
2023-01-17T08:08:43.421Z,9.37
2023-01-17T08:11:10.002Z,7.20
2023-01-17T08:13:36.706Z,6.90
2023-01-17T08:16:03.694Z,13.43
2023-01-17T08:18:30.879Z,21.30
2023-01-17T08:20:57.473Z,18.70
2023-01-17T08:23:24.142Z,15.33
2023-01-17T08:25:51.075Z,14.40
2023-01-17T08:28:17.976Z,13.27
2023-01-17T08:30:44.563Z,12.00
2023-01-17T08:33:11.452Z,12.47
2023-01-17T08:35:38.051Z,13.23
2023-01-17T08:38:05.039Z,17.17
2023-01-17T08:40:35.271Z,14.83
2023-01-17T08:43:01.877Z,14.63
2023-01-17T08:45:29.395Z,14.27
2023-01-17T08:47:58.727Z,11.80
2023-01-17T08:50:26.137Z,19.90
2023-01-17T08:53:00.930Z,16.03
2023-01-17T08:55:27.897Z,14.93
2023-01-17T08:57:54.935Z,21.37
2023-01-17T09:00:22.008Z,24.07
2023-01-17T09:02:51.519Z,21.53
2023-01-17T09:05:18.240Z,22.77
2023-01-17T09:07:44.855Z,26.60
2023-01-17T09:10:19.710Z,17.07
2023-01-17T09:12:48.240Z,22.77
2023-01-17T09:15:17.849Z,31.17
2023-01-17T09:17:44.819Z,21.60
2023-01-17T09:20:11.916Z,22.40
2023-01-17T09:22:39.139Z,25.07
2023-01-17T09:25:06.935Z,21.13
2023-01-17T09:27:33.723Z,19.87
2023-01-17T09:30:00.471Z,16.27
2023-01-17T09:32:27.112Z,15.50
2023-01-17T09:34:53.777Z,11.80
2023-01-17T09:37:20.347Z,10.50
2023-01-17T09:39:46.873Z,10.53
2023-01-17T09:42:36.438Z,10.37
2023-01-17T09:45:03.261Z,9.15
2023-01-17T09:47:45.199Z,8.63
2023-01-17T09:50:31.997Z,10.23
2023-01-17T09:53:03.275Z,12.33
2023-01-17T09:55:40.042Z,10.10
2023-01-17T09:58:12.895Z,9.37
2023-01-17T10:00:54.225Z,9.30
2023-01-17T10:03:39.652Z,9.17
2023-01-17T10:06:27.435Z,10.13
2023-01-17T10:09:20.395Z,9.97
2023-01-17T10:11:57.054Z,13.10
2023-01-17T10:14:54.611Z,11.87
2023-01-17T10:17:21.231Z,10.10
2023-01-17T10:20:34.345Z,9.73
2023-01-17T10:23:04.155Z,10.37
2023-01-17T10:25:54.918Z,9.63
2023-01-17T10:28:30.652Z,8.80
2023-01-17T10:31:09.959Z,9.20
2023-01-17T10:33:50.179Z,9.18
2023-01-17T10:38:56.393Z,8.43
2023-01-17T10:41:28.474Z,7.97
2023-01-17T10:44:15.566Z,8.70
2023-01-17T10:47:24.747Z,9.37
2023-01-17T10:49:53.898Z,9.17
2023-01-17T10:52:26.415Z,10.40
2023-01-17T10:55:14.270Z,9.83
2023-01-17T10:57:45.923Z,8.50
2023-01-17T11:00:18.610Z,9.27
2023-01-17T11:02:50.574Z,9.27
2023-01-17T11:05:29.258Z,8.23
2023-01-17T11:08:07.479Z,7.97
2023-01-17T11:10:43.359Z,7.10
2023-01-17T11:13:28.228Z,6.57
2023-01-17T11:15:59.129Z,7.63
2023-01-17T11:18:29.994Z,5.77
2023-01-17T11:21:17.548Z,6.60
2023-01-17T11:23:50.923Z,6.43
2023-01-17T11:26:32.866Z,5.47
2023-01-17T11:29:25.560Z,5.80
2023-01-17T11:31:52.636Z,5.03
2023-01-17T11:34:25.092Z,5.93
2023-01-17T11:37:17.098Z,6.07
2023-01-17T11:39:44.565Z,5.67
2023-01-17T11:42:35.412Z,5.37
2023-01-17T11:45:25.624Z,5.30
2023-01-17T11:53:26.806Z,5.47
2023-01-17T11:55:58.228Z,5.33
2023-01-17T11:58:26.768Z,4.93
2023-01-17T12:01:07.876Z,4.70
2023-01-17T12:03:52.099Z,5.43
2023-01-17T12:06:30.918Z,4.17
2023-01-17T12:09:09.808Z,4.90
2023-01-17T12:12:13.530Z,6.00
2023-01-17T12:14:54.260Z,4.50
2023-01-17T12:17:32.992Z,5.53
2023-01-17T12:20:06.284Z,6.50
2023-01-17T12:22:52.096Z,5.40
2023-01-17T12:25:24.953Z,6.03
2023-01-17T12:28:22.368Z,5.83
2023-01-17T12:31:16.032Z,5.50
2023-01-17T12:33:50.968Z,5.23
2023-01-17T12:36:49.471Z,5.00
2023-01-17T12:39:20.656Z,5.20
2023-01-17T12:41:56.481Z,4.10
2023-01-17T12:44:51.863Z,4.93
2023-01-17T12:47:20.867Z,3.87
2023-01-17T12:50:03.317Z,4.20
2023-01-17T12:52:37.371Z,4.63
2023-01-17T12:55:13.810Z,3.83
2023-01-17T12:57:45.288Z,5.90
2023-01-17T13:00:23.176Z,5.20
2023-01-17T13:03:08.555Z,5.10
2023-01-17T13:05:45.329Z,4.63
2023-01-17T13:08:41.755Z,7.70
2023-01-17T13:11:28.388Z,4.90
2023-01-17T13:13:58.019Z,4.70
2023-01-17T13:16:33.982Z,4.32
2023-01-17T13:19:11.359Z,7.93
2023-01-17T13:21:38.262Z,5.20
2023-01-17T13:24:19.651Z,4.50
2023-01-17T13:26:55.789Z,5.20
2023-01-17T13:29:53.392Z,5.97
2023-01-17T13:32:38.975Z,5.30
2023-01-17T13:35:24.010Z,4.63
2023-01-17T13:38:16.553Z,3.63
2023-01-17T13:40:49.321Z,4.53
2023-01-17T13:43:24.337Z,4.30
2023-01-17T13:45:53.722Z,5.50
2023-01-17T13:48:23.406Z,4.78
2023-01-17T13:51:20.334Z,3.60
2023-01-17T13:53:47.954Z,4.20
2023-01-17T13:56:31.602Z,6.30
2023-01-17T13:59:02.858Z,5.53
2023-01-17T14:01:32.618Z,5.80
2023-01-17T14:03:59.147Z,5.07
2023-01-17T14:06:29.020Z,3.80
2023-01-17T14:09:18.600Z,5.88
2023-01-17T14:12:23.866Z,5.20
2023-01-17T14:14:56.952Z,5.63
2023-01-17T14:17:58.132Z,5.90
2023-01-17T14:20:28.215Z,5.40
2023-01-17T14:23:01.528Z,6.55
2023-01-17T14:25:39.240Z,6.67
2023-01-17T14:28:31.873Z,7.30
2023-01-17T14:31:03.110Z,8.60
2023-01-17T14:33:35.458Z,9.23
2023-01-17T14:36:05.884Z,8.20
2023-01-17T14:38:34.224Z,6.77
2023-01-17T14:41:08.748Z,8.40
2023-01-17T14:43:42.404Z,10.27
2023-01-17T14:46:18.894Z,11.37
2023-01-17T14:48:46.161Z,10.97
2023-01-17T14:51:14.986Z,9.93
2023-01-17T14:53:52.617Z,12.77
2023-01-17T14:56:20.441Z,13.67
2023-01-17T14:58:47.181Z,11.47
2023-01-17T15:01:21.288Z,10.47
2023-01-17T15:03:55.232Z,10.20
2023-01-17T15:06:32.667Z,15.77
2023-01-17T15:09:03.666Z,14.13
2023-01-17T15:11:35.375Z,17.80
2023-01-17T15:14:06.069Z,17.20
2023-01-17T15:16:38.151Z,15.27
2023-01-17T15:19:15.122Z,14.57
2023-01-17T15:21:44.002Z,9.33
2023-01-17T15:24:18.356Z,8.87
2023-01-17T15:26:45.538Z,7.87
2023-01-17T15:29:27.138Z,10.90
2023-01-17T15:31:58.308Z,12.23
2023-01-17T15:34:29.732Z,11.47
2023-01-17T15:37:03.764Z,11.70
2023-01-17T15:39:34.422Z,21.73
2023-01-17T15:42:05.319Z,32.13
2023-01-17T15:44:49.389Z,24.20
2023-01-17T15:47:33.113Z,18.73
2023-01-17T15:50:03.262Z,15.70
2023-01-17T15:52:30.390Z,15.20
2023-01-17T15:55:12.637Z,10.37
2023-01-17T15:57:40.070Z,9.40
2023-01-17T16:00:15.093Z,12.17
2023-01-17T16:02:44.242Z,15.67
2023-01-17T16:05:42.128Z,30.00
2023-01-17T16:08:08.707Z,44.07
2023-01-17T16:10:37.881Z,37.77
2023-01-17T16:13:10.703Z,38.53
2023-01-17T16:15:38.227Z,34.50
2023-01-17T16:18:15.788Z,28.57
2023-01-17T16:21:05.773Z,27.27
2023-01-17T16:23:32.713Z,19.05
2023-01-17T16:25:59.253Z,8.13
2023-01-17T16:28:25.872Z,15.07
2023-01-17T16:30:54.186Z,16.27
2023-01-17T16:33:20.816Z,20.23
2023-01-17T16:35:47.490Z,21.50
2023-01-17T16:38:19.863Z,21.00
2023-01-17T16:40:47.549Z,28.67
2023-01-17T16:43:16.070Z,23.93
2023-01-17T16:45:45.884Z,20.73
2023-01-17T16:48:13.033Z,18.17
2023-01-17T16:50:48.368Z,17.43
2023-01-17T16:53:16.256Z,17.03
2023-01-17T16:55:43.892Z,15.90
2023-01-17T16:58:10.911Z,16.57
2023-01-17T17:00:37.744Z,15.93
2023-01-17T17:03:04.342Z,16.33
2023-01-17T17:05:33.590Z,12.63
2023-01-17T17:08:00.964Z,16.67
2023-01-17T17:10:27.870Z,19.20
2023-01-17T17:12:54.644Z,17.03
2023-01-17T17:15:21.636Z,9.93
2023-01-17T17:17:48.391Z,12.07
2023-01-17T17:20:15.812Z,7.50
2023-01-17T17:22:44.424Z,7.53
2023-01-17T17:25:12.214Z,6.70
2023-01-17T17:27:39.126Z,6.00
2023-01-17T17:30:06.461Z,8.03
2023-01-17T17:32:33.006Z,6.30
2023-01-17T17:34:59.668Z,7.70
2023-01-17T17:37:29.061Z,6.53
2023-01-17T17:39:56.832Z,6.77
2023-01-17T17:42:23.827Z,7.87
2023-01-17T17:44:51.459Z,8.47
2023-01-17T17:47:18.206Z,9.00
2023-01-17T17:49:44.892Z,9.17
2023-01-17T17:52:11.892Z,8.30
2023-01-17T17:54:38.632Z,8.37
2023-01-17T17:57:05.992Z,7.83
2023-01-17T17:59:32.583Z,8.03
2023-01-17T18:02:00.130Z,10.17
2023-01-17T18:04:27.443Z,8.90
2023-01-17T18:06:57.736Z,11.90
2023-01-17T18:09:24.558Z,18.88
2023-01-17T18:11:51.246Z,32.00
2023-01-17T18:14:20.976Z,39.03
2023-01-17T18:16:48.278Z,45.50
2023-01-17T18:19:21.030Z,45.47
2023-01-17T18:21:48.866Z,45.07
2023-01-17T18:24:17.623Z,43.63
2023-01-17T18:26:46.767Z,38.67
2023-01-17T18:29:16.476Z,44.90
2023-01-17T18:31:44.821Z,34.22
2023-01-17T18:34:16.778Z,37.97
2023-01-17T18:36:43.935Z,34.70
2023-01-17T18:39:19.621Z,33.53
2023-01-17T18:41:46.678Z,28.40
2023-01-17T18:44:13.572Z,29.53
2023-01-17T18:46:42.144Z,29.00
2023-01-17T18:49:16.663Z,26.97
2023-01-17T18:51:46.667Z,26.30
2023-01-17T18:54:13.603Z,17.52
2023-01-17T18:56:40.375Z,13.63
2023-01-17T18:59:07.159Z,14.10
2023-01-17T19:01:35.866Z,10.13
2023-01-17T19:04:04.283Z,11.47
2023-01-17T19:06:37.177Z,12.70
2023-01-17T19:09:06.450Z,11.97
2023-01-17T19:11:33.924Z,11.60
2023-01-17T19:14:01.568Z,16.70
2023-01-17T19:16:30.622Z,10.47
2023-01-17T19:19:07.416Z,9.67
2023-01-17T19:21:34.755Z,9.73
2023-01-17T19:24:01.790Z,10.10
2023-01-17T19:26:29.360Z,8.77
2023-01-17T19:28:58.822Z,8.90
2023-01-17T19:31:28.146Z,9.23
2023-01-17T19:33:57.622Z,10.80
2023-01-17T19:36:26.929Z,15.43
2023-01-17T19:39:03.948Z,23.17
2023-01-17T19:41:32.559Z,10.23
2023-01-17T19:44:05.167Z,7.80
2023-01-17T19:46:32.543Z,8.83
2023-01-17T19:48:59.720Z,8.47
2023-01-17T19:51:28.032Z,8.27
2023-01-17T19:53:55.863Z,8.73
2023-01-17T19:56:26.283Z,7.47
2023-01-17T19:58:54.484Z,7.60
2023-01-17T20:01:24.833Z,8.20
2023-01-17T20:03:52.252Z,9.13
2023-01-17T20:06:21.615Z,8.40
2023-01-17T20:08:48.775Z,9.40
2023-01-17T20:11:22.123Z,9.30
2023-01-17T20:13:53.563Z,9.53
2023-01-17T20:16:21.082Z,8.57
2023-01-17T20:18:51.931Z,15.47
2023-01-17T20:21:21.493Z,11.40
2023-01-17T20:23:49.364Z,18.10
2023-01-17T20:26:19.136Z,17.43
2023-01-17T20:28:47.753Z,19.92
2023-01-17T20:31:20.166Z,14.17
2023-01-17T20:33:50.404Z,18.83
2023-01-17T20:36:19.442Z,19.95
2023-01-17T20:38:46.568Z,21.23
2023-01-17T20:41:18.635Z,18.77
2023-01-17T20:43:47.710Z,18.13
2023-01-17T20:46:15.820Z,19.83
2023-01-17T20:48:51.362Z,21.27
2023-01-17T20:51:18.943Z,20.07
2023-01-17T20:53:46.954Z,18.80
2023-01-17T20:56:15.489Z,21.27
2023-01-17T20:58:42.876Z,19.37
2023-01-17T21:01:11.864Z,18.77
2023-01-17T21:03:39.825Z,20.37
2023-01-17T21:06:09.153Z,18.43
2023-01-17T21:08:41.304Z,19.43
2023-01-17T21:11:17.221Z,20.93
2023-01-17T21:13:52.694Z,18.73
2023-01-17T21:16:23.124Z,18.60
2023-01-17T21:18:52.794Z,18.23
2023-01-17T21:21:30.801Z,19.63
2023-01-17T21:23:59.252Z,21.53
2023-01-17T21:26:27.902Z,21.93
2023-01-17T21:28:54.807Z,19.40
2023-01-17T21:31:25.006Z,20.17
2023-01-17T21:34:00.479Z,20.60
2023-01-17T21:36:46.662Z,18.13
2023-01-17T21:39:17.464Z,18.10
2023-01-17T21:41:48.101Z,18.93
2023-01-17T21:46:45.436Z,19.10
2023-01-17T21:49:12.327Z,19.70
2023-01-17T21:51:54.127Z,20.83
2023-01-17T21:54:42.092Z,23.60
2023-01-17T21:57:28.274Z,20.63
2023-01-17T21:59:55.237Z,19.67
2023-01-17T22:02:21.982Z,19.90
2023-01-17T22:04:48.893Z,16.43
2023-01-17T22:07:16.600Z,17.03
2023-01-17T22:09:43.197Z,20.40
2023-01-17T22:12:09.817Z,20.67
2023-01-17T22:14:38.089Z,20.10
2023-01-17T22:17:04.698Z,20.53
2023-01-17T22:19:31.492Z,20.80
2023-01-17T22:21:58.069Z,16.50
2023-01-17T22:24:24.765Z,25.23
2023-01-17T22:26:51.317Z,18.83
2023-01-17T22:29:19.090Z,18.23
2023-01-17T22:31:45.976Z,18.13
2023-01-17T22:34:14.036Z,16.53
2023-01-17T22:36:41.094Z,15.47
2023-01-17T22:39:09.378Z,15.07
2023-01-17T22:41:38.000Z,13.83
2023-01-17T22:44:08.620Z,15.53
2023-01-17T22:49:05.909Z,13.77
2023-01-17T22:51:32.497Z,13.60
2023-01-17T22:54:03.441Z,13.90
2023-01-17T22:56:32.843Z,15.40
2023-01-17T22:59:04.199Z,12.53
2023-01-17T23:01:32.745Z,14.80
2023-01-17T23:04:04.338Z,14.60
2023-01-17T23:06:33.190Z,14.10
2023-01-17T23:09:02.815Z,13.63
2023-01-17T23:11:41.290Z,13.40
2023-01-17T23:14:14.962Z,13.00
2023-01-17T23:17:16.838Z,14.33
2023-01-17T23:19:51.068Z,13.10
2023-01-17T23:22:27.202Z,13.37
2023-01-17T23:25:01.594Z,12.57
2023-01-17T23:27:48.223Z,12.17
2023-01-17T23:30:19.586Z,12.60
2023-01-17T23:32:51.857Z,13.20
2023-01-17T23:35:20.744Z,11.67
2023-01-17T23:38:07.877Z,11.13
2023-01-17T23:40:36.541Z,11.93
2023-01-17T23:43:22.323Z,11.77
2023-01-17T23:45:53.106Z,11.20
2023-01-17T23:48:20.960Z,9.17
2023-01-17T23:50:48.636Z,9.77
2023-01-17T23:53:22.475Z,9.97
2023-01-17T23:55:54.947Z,9.10
2023-01-17T23:58:24.335Z,10.10
